Hancock, Maryland
Current Conditions -  °F | °C
As of 7:53 AM on Thursday 23 Oct 2014 (Local Time) from KMRB Reporting Station
Broken Clouds Broken Clouds  
Wind Chill: 51°   Ceiling: 7000
Heat Index: 51°   Visibility: 10mi
Dew Point: 39°   Wind: 13mph
Humidity: 63%   Direction: 320°NW
Pressure: 29.96"   Gusts: NA
Location:  39.7°N, 78.18°W
Report Text: KMRB 231153Z 32011KT 10SM BKN070 11/04 A2996 RMK AO2 PK WND 33027/1119 SLP147 70003 T01060039 10111 20100 53002
Loading
Personal Weather Stations






























Interactive Weather Map New forecast layout! Learn more

10-Day Weather Forecast

Advertisements
Track Severe Weather on mobile